Dover, DE

3:18 AM EDT on May 29, 2015 (GMT -0400)
Dover Air Force Base | | Change Station
CLOSE
Current Station
Airport
Location: Dover AFB,
Elevation: 30 ft
Nearby Weather Stations

Elev 30 ft 39.13 °N, 75.47 °W | Updated 20 minutes ago

Overcast
Overcast
72 °F
Feels Like 72 °F
N
2
Wind Variable Wind from ENE

Today
High -- | Low -- °F
--% Chance of Precip.
Yesterday
High -- | Low -- °F
Precip. -- in
5:39 AM 8:19 PM
Waxing Gibbous, 81% visible
Pressure 30.20 in
Visibility 10.0 miles
Clouds Few 1400 ft
Mostly Cloudy 2200 ft
Dew Point 72 °F
Humidity 100%
Rainfall 0.00 in
Snow Depth Not available.
UV 0 out of 12
Pollen 6.70 out of 12
Air Quality Not available.
Flu Activity Sporadic
METAR KDOV 290658Z AUTO 07002KT 10SM FEW014 BKN022 22/22 A3019 RMK AO2 CIG 022V030 SLP226 T02200220 VISNO RWY19 CHINO RWY19 $

More Conditions Fewer Conditions

Pressure 30.20 in
Visibility 10.0 miles
Clouds Few 1400 ft
Mostly Cloudy 2200 ft
Dew Point 72 °F
Humidity 100%
Rainfall 0.00 in
Snow Depth Not available.
UV 0 out of 12
Pollen 6.70 out of 12
Air Quality Not available.
Flu Activity Sporadic
METAR KDOV 290658Z AUTO 07002KT 10SM FEW014 BKN022 22/22 A3019 RMK AO2 CIG 022V030 SLP226 T02200220 VISNO RWY19 CHINO RWY19 $

More Conditions Fewer Conditions

10-Day Weather Forecast

Almanac

Astronomy

May. 29, 2015 Rise Set
Actual Time
Civil Twilight
Nautical Twilight
Astronomical Twilight
Moon
Length of Visible Light
Length of Day
Tomorrow will be .
, % of the Moon is Illuminated

Today's Extremes

State Highs State Lows

Community

WunderPhotos

Upload Photos

1,825,215 photos uploaded!

WunderBlogs® & News

Nearby

Air Quality

  Air Quality AQ Index Pollutant
Not available.

Snow Depth

Station Depth Elevation

Earthquake Activity

City Distance Mag. Time & Date
Minimum magnitude displayed is 2.5.

Coastal Water Temperatures

Place Temperature

Stations

Nearby Weather Stations

Station Location Temp. Windchill Dew Point Humidity Wind Precip. Elev Updated Type